Martz, Indiana
Current Conditions -  °F | °C
As of 9:53 AM on Saturday 22 Nov 2014 (Local Time) from KHUF Reporting Station
Overcast Overcast  
Wind Chill: 42°   Ceiling: 5500
Heat Index: 48°   Visibility: 10mi
Dew Point: 38°   Wind: 15mph
Humidity: 68%   Direction: 200°SSW
Pressure: 30.16"   Gusts: 22mph
Location:  39.2653°N, 87.1094°W
Report Text: KHUF 221453Z 20013G19KT 10SM SCT047 BKN055 OVC100 09/03 A3016 RMK AO2 SLP216 T00890033 58010
Loading
Personal Weather Stations






























Interactive Weather Map New forecast layout! Learn more

10-Day Weather Forecast

Advertisements
Track Severe Weather on mobile